Time;durP1;ratioP1;P1;durP2;ratioP2;P2;SDS_P1;SDS_P2;PMS_P1;PMS_P2;Temp;Humidity;BMP_temperature;BMP_pressure;BME280_temperature;BME280_humidity;BME280_pressure;Samples;Min_cycle;Max_cycle;Signal;HPM_P1;HPM_P2
2023/05/21 00:02:14;;;;;;;14.98;9.70;;;14.60;99.90;;;;;;5073858;28;20753;-46
2023/05/21 00:04:40;;;;;;;14.13;9.98;;;14.50;99.90;;;;;;5073710;28;20161;-46
2023/05/21 00:07:07;;;;;;;14.30;9.70;;;14.50;99.90;;;;;;5073554;28;20228;-46
2023/05/21 00:09:33;;;;;;;17.17;10.10;;;14.50;99.90;;;;;;5073626;28;20717;-46
2023/05/21 00:11:58;;;;;;;13.57;10.35;;;14.50;99.90;;;;;;5073786;28;20206;-46
2023/05/21 00:14:24;;;;;;;13.70;9.98;;;14.50;99.90;;;;;;5074102;28;20206;-46
2023/05/21 00:16:49;;;;;;;14.00;9.85;;;14.40;99.90;;;;;;5073603;28;20176;-46
2023/05/21 00:19:15;;;;;;;13.70;10.00;;;14.60;99.90;;;;;;5073578;28;20170;-46
2023/05/21 00:21:41;;;;;;;14.95;9.45;;;14.60;99.90;;;;;;5073657;28;20173;-46
2023/05/21 00:24:06;;;;;;;14.07;10.30;;;14.50;99.90;;;;;;5073414;28;20662;-46
2023/05/21 00:26:33;;;;;;;13.93;10.10;;;14.50;99.90;;;;;;5073330;28;20169;-46
2023/05/21 00:28:58;;;;;;;14.23;10.40;;;14.50;99.90;;;;;;5073333;28;20166;-46
2023/05/21 00:31:24;;;;;;;14.85;9.20;;;14.50;99.90;;;;;;5073636;28;20576;-46
2023/05/21 00:33:49;;;;;;;14.02;9.32;;;14.60;99.90;;;;;;5072325;28;20233;-46
2023/05/21 00:36:16;;;;;;;15.75;9.70;;;14.50;99.90;;;;;;5073173;28;20208;-46
2023/05/21 00:38:42;;;;;;;15.18;9.10;;;14.40;99.90;;;;;;5073335;28;20178;-46
2023/05/21 00:41:12;;;;;;;14.90;9.18;;;14.40;99.90;;;;;;5073064;28;20169;-46
2023/05/21 00:43:40;;;;;;;16.98;10.00;;;14.40;99.90;;;;;;5072949;28;20162;-46
2023/05/21 00:46:16;;;;;;;15.10;9.60;;;14.50;99.90;;;;;;5072979;28;20184;-46
2023/05/21 00:48:44;;;;;;;14.65;9.88;;;14.50;99.90;;;;;;5073201;28;20223;-46
2023/05/21 00:51:11;;;;;;;14.45;9.70;;;14.50;99.90;;;;;;5073087;28;20170;-46
2023/05/21 00:53:36;;;;;;;16.38;9.70;;;14.50;99.90;;;;;;5072743;28;20209;-46
2023/05/21 00:56:02;;;;;;;13.68;10.15;;;14.50;99.90;;;;;;5072800;28;20169;-46
2023/05/21 00:58:28;;;;;;;13.48;9.68;;;14.40;99.90;;;;;;5073016;28;20174;-48
2023/05/21 01:00:55;;;;;;;12.15;8.55;;;14.40;99.90;;;;;;5073054;28;20203;-47
2023/05/21 01:03:22;;;;;;;14.38;9.30;;;14.40;99.90;;;;;;5073071;28;20158;-46
2023/05/21 01:05:52;;;;;;;11.13;8.52;;;14.40;99.90;;;;;;5072352;28;20297;-46
2023/05/21 01:08:20;;;;;;;13.68;9.25;;;14.30;99.90;;;;;;5072394;28;20649;-46
2023/05/21 01:10:47;;;;;;;12.52;9.30;;;14.40;99.90;;;;;;5072489;28;20654;-46
2023/05/21 01:13:15;;;;;;;10.88;8.48;;;14.40;99.90;;;;;;5072350;28;20189;-46
2023/05/21 01:15:42;;;;;;;12.30;9.05;;;14.30;99.90;;;;;;5072389;28;20220;-46
2023/05/21 01:18:08;;;;;;;15.52;9.20;;;14.30;99.90;;;;;;5072376;28;20249;-46
2023/05/21 01:20:34;;;;;;;10.75;8.57;;;14.20;99.90;;;;;;5072297;28;20687;-46
2023/05/21 01:23:00;;;;;;;12.25;8.50;;;;;;;;;;5072486;28;20198;-46
2023/05/21 01:25:25;;;;;;;16.77;9.48;;;14.20;99.90;;;;;;5072455;28;20236;-47
2023/05/21 01:27:51;;;;;;;13.73;9.10;;;14.20;99.90;;;;;;5072502;28;20224;-46
2023/05/21 01:30:18;;;;;;;10.77;8.45;;;14.10;99.90;;;;;;5072099;28;20619;-46
2023/05/21 01:32:55;;;;;;;14.50;9.50;;;;;;;;;;5072144;28;20173;-46
2023/05/21 01:35:43;;;;;;;13.60;9.02;;;14.20;99.90;;;;;;5072691;28;20254;-46
2023/05/21 01:38:24;;;;;;;14.80;8.70;;;14.10;99.90;;;;;;5071779;28;20170;-46
2023/05/21 01:41:02;;;;;;;12.30;8.38;;;14.00;99.90;;;;;;5072231;28;20718;-47
2023/05/21 01:43:31;;;;;;;12.48;9.00;;;14.10;99.90;;;;;;5071785;28;20646;-46
2023/05/21 01:45:58;;;;;;;12.75;8.27;;;14.20;99.90;;;;;;5071922;28;20168;-47
2023/05/21 01:48:27;;;;;;;12.77;8.52;;;14.10;99.90;;;;;;5072156;28;20210;-47
2023/05/21 01:50:54;;;;;;;11.95;8.40;;;14.10;99.90;;;;;;5072173;28;20162;-46
2023/05/21 01:53:21;;;;;;;10.23;8.52;;;14.00;99.90;;;;;;5071976;28;20789;-46
2023/05/21 01:55:47;;;;;;;19.05;8.75;;;14.00;99.90;;;;;;5071698;28;20165;-46
2023/05/21 01:58:14;;;;;;;12.57;8.55;;;14.00;99.90;;;;;;5071876;28;20308;-46
2023/05/21 02:00:40;;;;;;;14.02;8.77;;;14.00;99.90;;;;;;5071619;28;20181;-46
2023/05/21 02:03:06;;;;;;;14.88;8.90;;;13.90;99.90;;;;;;5087279;28;20177;-46
2023/05/21 02:05:32;;;;;;;13.23;9.77;;;;;;;;;;5071442;28;20162;-46
2023/05/21 02:07:58;;;;;;;16.25;10.00;;;13.90;99.90;;;;;;5071571;28;20170;-46
2023/05/21 02:10:24;;;;;;;14.65;10.27;;;14.00;99.90;;;;;;5071981;28;20154;-46
2023/05/21 02:12:50;;;;;;;12.73;10.85;;;13.90;99.90;;;;;;5072067;28;20635;-46
2023/05/21 02:15:18;;;;;;;14.60;10.57;;;14.00;99.90;;;;;;5071513;28;20220;-46
2023/05/21 02:17:45;;;;;;;15.07;9.77;;;13.90;99.90;;;;;;5071619;28;20166;-46
2023/05/21 02:20:11;;;;;;;14.68;11.48;;;13.80;99.90;;;;;;5071402;28;20221;-46
2023/05/21 02:22:41;;;;;;;19.58;12.20;;;13.80;99.90;;;;;;5071397;28;20185;-46
2023/05/21 02:25:08;;;;;;;16.50;12.20;;;13.80;99.90;;;;;;5071734;28;20497;-46
2023/05/21 02:27:35;;;;;;;18.65;12.50;;;13.80;99.90;;;;;;5071306;28;20650;-46
2023/05/21 02:30:02;;;;;;;17.58;13.13;;;13.70;99.90;;;;;;5071270;28;20205;-46
2023/05/21 02:32:27;;;;;;;20.80;14.02;;;13.70;99.90;;;;;;5071250;28;20505;-46
2023/05/21 02:34:53;;;;;;;21.90;14.00;;;13.70;99.90;;;;;;5071714;28;20217;-46
2023/05/21 02:37:19;;;;;;;17.23;13.70;;;13.70;99.90;;;;;;5071249;28;20195;-48
2023/05/21 02:39:45;;;;;;;17.90;13.13;;;13.70;99.90;;;;;;5071416;28;20169;-46
2023/05/21 02:42:10;;;;;;;20.38;13.48;;;13.60;99.90;;;;;;5071473;28;20166;-46
2023/05/21 02:44:36;;;;;;;17.48;12.80;;;13.50;99.90;;;;;;5071204;28;20176;-46
2023/05/21 02:47:01;;;;;;;17.10;12.70;;;13.50;99.90;;;;;;5071151;28;20248;-46
2023/05/21 02:49:27;;;;;;;18.77;14.02;;;13.50;99.90;;;;;;5071135;28;20166;-46
2023/05/21 02:51:53;;;;;;;21.05;13.85;;;13.40;99.90;;;;;;5071613;28;20181;-46
2023/05/21 02:54:18;;;;;;;23.15;13.55;;;13.50;99.90;;;;;;5071026;28;20259;-46
2023/05/21 02:56:44;;;;;;;17.88;13.23;;;13.50;99.90;;;;;;5073107;28;20166;-46
2023/05/21 02:59:09;;;;;;;22.52;13.25;;;13.50;99.90;;;;;;5075324;28;20208;-46
2023/05/21 03:01:35;;;;;;;19.73;12.80;;;13.50;99.90;;;;;;5075213;28;20248;-46
2023/05/21 03:04:00;;;;;;;19.67;13.90;;;13.50;99.90;;;;;;5075007;28;20198;-47
2023/05/21 03:06:26;;;;;;;19.63;13.02;;;13.40;99.90;;;;;;5074838;28;20245;-46
2023/05/21 03:08:51;;;;;;;18.85;13.35;;;13.50;99.90;;;;;;5075218;28;20170;-46
2023/05/21 03:11:18;;;;;;;21.27;13.43;;;13.50;99.90;;;;;;5074782;28;20173;-46
2023/05/21 03:13:45;;;;;;;18.40;13.45;;;;;;;;;;5074863;28;20209;-46
2023/05/21 03:16:11;;;;;;;18.63;13.00;;;13.50;99.90;;;;;;5074900;28;20162;-47
2023/05/21 03:18:36;;;;;;;15.75;12.30;;;13.50;99.90;;;;;;5074874;28;20181;-46
2023/05/21 03:21:03;;;;;;;16.50;11.75;;;13.40;99.90;;;;;;5074609;28;20518;-47
2023/05/21 03:23:28;;;;;;;18.55;12.23;;;13.40;99.90;;;;;;5074458;28;20181;-45
2023/05/21 03:25:54;;;;;;;16.63;12.35;;;;;;;;;;5075039;28;20166;-47
2023/05/21 03:28:20;;;;;;;15.48;11.55;;;13.20;99.90;;;;;;5074796;28;20170;-46
2023/05/21 03:30:48;;;;;;;19.13;11.65;;;13.30;99.90;;;;;;5074440;28;20549;-46
2023/05/21 03:33:14;;;;;;;17.42;11.27;;;13.40;99.90;;;;;;5074513;28;20201;-46
2023/05/21 03:35:40;;;;;;;14.85;10.80;;;13.30;99.90;;;;;;5074596;28;20177;-47
2023/05/21 03:38:05;;;;;;;17.88;11.13;;;13.30;99.90;;;;;;5074562;28;20531;-47
2023/05/21 03:40:31;;;;;;;15.77;11.70;;;13.40;99.90;;;;;;5074407;28;20181;-46
2023/05/21 03:42:56;;;;;;;13.52;10.25;;;13.40;99.90;;;;;;5072925;28;20178;-46
2023/05/21 03:45:22;;;;;;;15.20;10.52;;;13.40;99.90;;;;;;5074604;28;20158;-46
2023/05/21 03:47:48;;;;;;;14.80;9.88;;;;;;;;;;5074077;28;20192;-46
2023/05/21 03:50:13;;;;;;;13.45;10.57;;;13.40;99.90;;;;;;5074280;28;20165;-46
2023/05/21 03:52:39;;;;;;;14.77;10.57;;;;;;;;;;5073888;28;20166;-46
2023/05/21 03:55:05;;;;;;;13.73;10.60;;;13.50;99.90;;;;;;5073977;28;20174;-46
2023/05/21 03:57:31;;;;;;;13.63;10.00;;;13.40;99.90;;;;;;5073890;28;20211;-46
2023/05/21 03:59:57;;;;;;;14.82;10.63;;;13.40;99.90;;;;;;5074106;28;20182;-46
2023/05/21 04:02:25;;;;;;;15.43;10.20;;;13.30;99.90;;;;;;5074557;28;20247;-46
2023/05/21 04:04:52;;;;;;;14.30;10.32;;;13.40;99.90;;;;;;5074170;28;20158;-46
2023/05/21 04:07:18;;;;;;;11.50;9.15;;;13.50;99.90;;;;;;5072656;28;20225;-46
2023/05/21 04:09:44;;;;;;;14.60;9.85;;;13.50;99.90;;;;;;5073428;28;20243;-46
2023/05/21 04:12:09;;;;;;;12.77;9.57;;;13.40;99.90;;;;;;5073675;28;20249;-46
2023/05/21 04:14:36;;;;;;;14.63;9.32;;;13.50;99.90;;;;;;5073577;28;20241;-46
2023/05/21 04:17:04;;;;;;;11.63;9.73;;;;;;;;;;5073778;28;20170;-46
2023/05/21 04:19:30;;;;;;;12.85;9.10;;;;;;;;;;5073766;28;20198;-46
2023/05/21 04:21:56;;;;;;;12.05;8.93;;;13.50;99.90;;;;;;5073493;28;20193;-46
2023/05/21 04:24:23;;;;;;;12.45;9.18;;;13.50;99.90;;;;;;5073771;28;20258;-46
2023/05/21 04:26:48;;;;;;;14.63;10.02;;;13.50;99.90;;;;;;5072141;28;20196;-46
2023/05/21 04:29:19;;;;;;;11.82;9.45;;;13.60;99.90;;;;;;5073328;28;20202;-47
2023/05/21 04:31:48;;;;;;;13.35;9.23;;;13.50;99.90;;;;;;5073151;28;20649;-46
2023/05/21 04:34:16;;;;;;;11.57;9.43;;;13.60;99.90;;;;;;5073167;28;20678;-46
2023/05/21 04:36:44;;;;;;;13.23;9.25;;;13.60;99.90;;;;;;5073470;28;20288;-46
2023/05/21 04:39:13;;;;;;;14.63;10.18;;;13.50;99.90;;;;;;5073431;28;20173;-47
2023/05/21 04:41:39;;;;;;;13.88;9.20;;;;;;;;;;5073009;28;20583;-46
2023/05/21 04:44:08;;;;;;;11.82;8.77;;;13.70;99.90;;;;;;5073040;28;20624;-47
2023/05/21 04:46:34;;;;;;;12.63;8.52;;;13.60;99.90;;;;;;5073259;28;20170;-46
2023/05/21 04:49:02;;;;;;;11.13;8.63;;;13.70;99.90;;;;;;5073023;28;20538;-46
2023/05/21 04:51:29;;;;;;;12.63;8.43;;;13.80;99.90;;;;;;5072947;28;20170;-46
2023/05/21 04:53:56;;;;;;;11.70;9.18;;;13.70;99.90;;;;;;5072781;28;20210;-46
2023/05/21 04:56:25;;;;;;;9.85;8.20;;;13.80;99.90;;;;;;5073259;28;20249;-46
2023/05/21 04:58:51;;;;;;;12.75;8.95;;;;;;;;;;5073380;28;20174;-46
2023/05/21 05:01:17;;;;;;;11.07;7.95;;;13.70;99.90;;;;;;5072725;28;20196;-46
2023/05/21 05:03:44;;;;;;;11.55;8.55;;;13.80;99.90;;;;;;5072593;28;20663;-46
2023/05/21 05:06:10;;;;;;;13.48;7.97;;;13.90;99.90;;;;;;5072540;28;20216;-46
2023/05/21 05:08:35;;;;;;;11.75;8.10;;;13.90;99.90;;;;;;5072506;28;20170;-46
2023/05/21 05:11:01;;;;;;;11.63;8.35;;;;;;;;;;5072750;28;20252;-46
2023/05/21 05:13:27;;;;;;;10.82;8.02;;;13.80;99.90;;;;;;5072349;28;20678;-46
2023/05/21 05:15:53;;;;;;;11.35;8.40;;;14.00;99.90;;;;;;5072905;28;20222;-46
2023/05/21 05:18:18;;;;;;;8.82;7.40;;;14.00;99.90;;;;;;5072204;28;20162;-46
2023/05/21 05:20:45;;;;;;;12.18;8.52;;;14.00;99.90;;;;;;5072079;28;20249;-46
2023/05/21 05:23:11;;;;;;;10.52;7.45;;;14.00;99.90;;;;;;5072459;28;20535;-46
2023/05/21 05:25:36;;;;;;;12.45;7.90;;;14.10;99.90;;;;;;5072256;28;20181;-46
2023/05/21 05:28:02;;;;;;;10.63;8.32;;;14.10;99.90;;;;;;5072124;28;20170;-46
2023/05/21 05:30:28;;;;;;;14.63;7.38;;;14.20;99.90;;;;;;5072393;28;20229;-46
2023/05/21 05:32:54;;;;;;;9.45;7.63;;;;;;;;;;5072205;28;20177;-46
2023/05/21 05:35:19;;;;;;;12.75;8.32;;;14.30;99.90;;;;;;5072559;28;20195;-46
2023/05/21 05:37:45;;;;;;;9.73;8.50;;;14.30;99.90;;;;;;5072173;28;20170;-46
2023/05/21 05:40:11;;;;;;;11.95;8.20;;;14.40;99.90;;;;;;5071975;28;20665;-47
2023/05/21 05:42:36;;;;;;;7.97;7.18;;;14.40;99.90;;;;;;5072182;28;20700;-46
2023/05/21 05:45:02;;;;;;;9.57;7.90;;;14.40;99.90;;;;;;5071807;28;20615;-46
2023/05/21 05:47:27;;;;;;;9.73;7.18;;;14.40;99.90;;;;;;5071823;28;20200;-46
2023/05/21 05:49:53;;;;;;;10.40;7.55;;;;;;;;;;5072232;28;20245;-46
2023/05/21 05:52:19;;;;;;;9.32;7.45;;;;;;;;;;5072133;28;20201;-46
2023/05/21 05:54:45;;;;;;;8.38;7.47;;;14.60;99.90;;;;;;5071700;28;20202;-46
2023/05/21 05:57:11;;;;;;;8.38;7.22;;;14.70;99.90;;;;;;5071568;28;20166;-46
2023/05/21 05:59:36;;;;;;;10.35;7.65;;;14.70;99.90;;;;;;5071598;28;20181;-46
2023/05/21 06:02:02;;;;;;;12.48;8.20;;;14.70;99.90;;;;;;5071597;28;20162;-46
2023/05/21 06:04:28;;;;;;;8.82;7.85;;;14.90;99.90;;;;;;5071609;28;20170;-46
2023/05/21 06:06:56;;;;;;;11.90;7.05;;;14.90;99.90;;;;;;5071411;28;20586;-46
2023/05/21 06:09:22;;;;;;;9.25;7.65;;;15.00;99.90;;;;;;5072135;28;20583;-46
2023/05/21 06:11:48;;;;;;;8.52;7.45;;;15.10;99.90;;;;;;5071769;28;20181;-46
2023/05/21 06:14:13;;;;;;;10.05;7.38;;;15.20;99.90;;;;;;5071442;28;20201;-47
2023/05/21 06:16:39;;;;;;;10.45;7.13;;;;;;;;;;5071398;28;20166;-46
2023/05/21 06:19:05;;;;;;;8.13;7.30;;;15.40;99.90;;;;;;5071440;28;20306;-46
2023/05/21 06:21:30;;;;;;;9.57;7.68;;;15.60;99.90;;;;;;5071362;28;20713;-46
2023/05/21 06:23:56;;;;;;;8.45;7.25;;;15.90;99.90;;;;;;5071364;28;20174;-46
2023/05/21 06:26:22;;;;;;;10.52;7.32;;;15.90;99.90;;;;;;5071763;28;20248;-46
2023/05/21 06:28:48;;;;;;;10.75;7.53;;;15.90;99.90;;;;;;5071602;28;20239;-46
2023/05/21 06:31:14;;;;;;;10.30;7.38;;;15.90;99.90;;;;;;5070622;28;20190;-46
2023/05/21 06:33:40;;;;;;;11.88;8.30;;;16.00;99.90;;;;;;5071099;28;20209;-46
2023/05/21 06:36:06;;;;;;;8.95;7.45;;;16.20;99.90;;;;;;5071330;28;20257;-46
2023/05/21 06:38:31;;;;;;;9.20;8.13;;;16.20;99.90;;;;;;5071225;28;20257;-46
2023/05/21 06:40:57;;;;;;;9.52;7.90;;;16.10;99.90;;;;;;5071214;28;20166;-46
2023/05/21 06:43:23;;;;;;;9.88;7.40;;;;;;;;;;5071895;28;20195;-46
2023/05/21 06:45:49;;;;;;;11.90;8.57;;;16.30;99.90;;;;;;5071804;28;20166;-46
2023/05/21 06:48:16;;;;;;;9.90;7.82;;;16.30;99.90;;;;;;5071227;28;20236;-46
2023/05/21 06:50:42;;;;;;;8.60;7.43;;;16.20;99.90;;;;;;5071194;28;20249;-46
2023/05/21 06:53:08;;;;;;;11.55;8.15;;;;;;;;;;5071020;28;20189;-46
2023/05/21 06:55:33;;;;;;;9.68;7.78;;;16.40;99.90;;;;;;5086742;28;20174;-46
2023/05/21 06:57:59;;;;;;;10.75;8.35;;;16.50;99.90;;;;;;5071119;28;20531;-46
2023/05/21 07:00:25;;;;;;;11.20;7.82;;;16.70;99.90;;;;;;5071325;28;20177;-46
2023/05/21 07:02:50;;;;;;;9.52;8.32;;;16.80;99.90;;;;;;5071675;28;20178;-46
2023/05/21 07:05:16;;;;;;;13.85;8.95;;;16.80;99.90;;;;;;5070978;28;20162;-46
2023/05/21 07:07:42;;;;;;;11.07;8.82;;;17.20;99.90;;;;;;5070818;28;20309;-46
2023/05/21 07:10:08;;;;;;;8.85;7.78;;;17.20;99.90;;;;;;5070982;28;20162;-47
2023/05/21 07:12:34;;;;;;;10.93;8.00;;;17.20;99.90;;;;;;5070739;28;20670;-46
2023/05/21 07:14:59;;;;;;;9.48;8.48;;;17.20;99.90;;;;;;5070854;28;20205;-47
2023/05/21 07:17:25;;;;;;;11.07;8.30;;;17.30;99.90;;;;;;5070969;28;20177;-46
2023/05/21 07:19:50;;;;;;;13.32;8.98;;;17.50;99.90;;;;;;5071497;28;20185;-47
2023/05/21 07:22:16;;;;;;;8.75;7.95;;;17.60;99.90;;;;;;5070787;28;20162;-46
2023/05/21 07:24:41;;;;;;;13.07;8.85;;;17.50;99.90;;;;;;5070756;28;20178;-46
2023/05/21 07:27:07;;;;;;;9.57;8.27;;;17.60;99.90;;;;;;5070802;28;20162;-46
2023/05/21 07:29:33;;;;;;;9.77;7.93;;;17.90;99.90;;;;;;5070810;28;20252;-46
2023/05/21 07:31:58;;;;;;;9.88;7.95;;;17.70;99.90;;;;;;5070708;28;20166;-46
2023/05/21 07:34:25;;;;;;;10.52;8.05;;;;;;;;;;5070701;28;20605;-46
2023/05/21 07:36:51;;;;;;;8.10;7.30;;;17.70;99.90;;;;;;5071056;28;20166;-47
2023/05/21 07:39:17;;;;;;;13.00;8.95;;;17.80;99.90;;;;;;5070625;28;20220;-46
2023/05/21 07:41:43;;;;;;;12.55;8.10;;;;;;;;;;5071228;28;20791;-46
2023/05/21 07:44:09;;;;;;;9.00;8.10;;;;;;;;;;5074106;28;20174;-46
2023/05/21 07:46:35;;;;;;;8.82;7.85;;;17.70;99.90;;;;;;5074221;28;20162;-46
2023/05/21 07:49:01;;;;;;;9.05;7.82;;;17.90;99.90;;;;;;5074097;28;20635;-46
2023/05/21 07:51:26;;;;;;;10.07;8.63;;;18.00;99.90;;;;;;5074016;28;20181;-46
2023/05/21 07:53:52;;;;;;;10.45;8.10;;;18.20;99.90;;;;;;5074290;28;20286;-47
2023/05/21 07:56:17;;;;;;;10.35;8.23;;;18.20;99.90;;;;;;5074039;28;20173;-46
2023/05/21 07:58:44;;;;;;;12.32;8.82;;;18.40;99.90;;;;;;5073901;28;20645;-46
2023/05/21 08:01:10;;;;;;;10.10;9.00;;;18.60;99.90;;;;;;5073939;28;20166;-46
2023/05/21 08:03:36;;;;;;;9.57;8.60;;;18.60;99.90;;;;;;5073819;28;20216;-47
2023/05/21 08:06:02;;;;;;;9.52;8.52;;;18.50;99.90;;;;;;5073837;28;20229;-47
2023/05/21 08:08:27;;;;;;;9.65;8.48;;;18.60;99.90;;;;;;5073783;28;20659;-46
2023/05/21 08:10:54;;;;;;;9.32;8.38;;;;;;;;;;5073619;28;20255;-46
2023/05/21 08:13:19;;;;;;;13.52;8.40;;;18.60;99.90;;;;;;5074250;28;20238;-47
2023/05/21 08:15:45;;;;;;;11.32;9.70;;;19.00;99.90;;;;;;5073616;28;20207;-46
2023/05/21 08:18:11;;;;;;;10.15;8.65;;;19.40;99.90;;;;;;5073851;28;20177;-45
2023/05/21 08:20:36;;;;;;;10.13;8.60;;;19.70;99.90;;;;;;5073466;28;20537;-46
2023/05/21 08:23:02;;;;;;;9.40;8.50;;;19.50;99.90;;;;;;5073515;28;20162;-46
2023/05/21 08:25:29;;;;;;;10.05;7.97;;;19.50;99.90;;;;;;5073489;28;20635;-47
2023/05/21 08:27:55;;;;;;;9.70;8.70;;;19.50;99.90;;;;;;5073417;28;20245;-47
2023/05/21 08:30:20;;;;;;;12.50;8.75;;;19.80;99.90;;;;;;5073787;28;20219;-46
2023/05/21 08:32:47;;;;;;;10.73;9.20;;;20.00;99.90;;;;;;5073238;28;20162;-47
2023/05/21 08:35:12;;;;;;;10.90;9.77;;;20.00;99.90;;;;;;5073283;28;20314;-46
2023/05/21 08:37:38;;;;;;;10.95;9.10;;;20.20;99.90;;;;;;5073573;28;20224;-46
2023/05/21 08:40:05;;;;;;;13.13;9.38;;;20.10;99.90;;;;;;5073079;28;20170;-46
2023/05/21 08:42:43;;;;;;;9.95;8.95;;;19.80;99.90;;;;;;5073030;28;20642;-46
2023/05/21 08:45:12;;;;;;;12.18;9.60;;;20.00;99.90;;;;;;5073036;28;20538;-46
2023/05/21 08:47:41;;;;;;;10.75;9.70;;;19.90;99.90;;;;;;5072894;28;20631;-46
2023/05/21 08:50:09;;;;;;;11.15;9.73;;;20.00;99.90;;;;;;5072954;28;20635;-46
2023/05/21 08:52:35;;;;;;;10.90;9.35;;;;;;;;;;5072876;28;20162;-46
2023/05/21 08:55:03;;;;;;;12.05;9.48;;;20.10;99.90;;;;;;5072104;28;20209;-46
2023/05/21 08:57:30;;;;;;;11.80;9.90;;;20.30;99.90;;;;;;5072782;28;20166;-46
2023/05/21 08:59:56;;;;;;;11.35;10.15;;;20.80;99.90;;;;;;5072964;28;20170;-46
2023/05/21 09:02:23;;;;;;;13.27;9.93;;;20.70;99.90;;;;;;5073051;28;20162;-46
2023/05/21 09:04:50;;;;;;;12.05;10.43;;;21.10;99.90;;;;;;5073337;28;20184;-46
2023/05/21 09:07:16;;;;;;;11.02;9.85;;;21.30;99.90;;;;;;5072419;28;20213;-46
2023/05/21 09:09:51;;;;;;;11.48;9.52;;;21.30;99.90;;;;;;5072499;28;20229;-45
2023/05/21 09:12:18;;;;;;;10.35;9.35;;;;;;;;;;5071740;28;20559;-46
2023/05/21 09:14:44;;;;;;;11.85;10.45;;;21.20;99.90;;;;;;5071697;28;20646;-46
2023/05/21 09:17:13;;;;;;;12.63;10.10;;;21.60;99.90;;;;;;5072327;28;20204;-51
2023/05/21 09:20:14;;;;;;;11.55;9.77;;;21.70;99.90;;;;;;5072326;28;20189;-50
2023/05/21 09:22:48;;;;;;;11.00;9.85;;;21.80;99.90;;;;;;5072235;28;20646;-51
2023/05/21 09:25:22;;;;;;;10.25;9.25;;;22.10;99.90;;;;;;5072221;28;20166;-51
2023/05/21 09:27:48;;;;;;;11.38;10.10;;;22.10;99.90;;;;;;5072727;28;20161;-51
2023/05/21 09:30:16;;;;;;;11.00;9.55;;;21.80;99.90;;;;;;5072137;28;20220;-51
2023/05/21 09:32:43;;;;;;;11.30;9.65;;;22.00;99.90;;;;;;5072043;28;20249;-51
2023/05/21 09:35:11;;;;;;;11.90;10.60;;;21.60;99.90;;;;;;5071992;28;20210;-50
2023/05/21 09:37:47;;;;;;;12.95;10.10;;;21.30;99.90;;;;;;5071927;28;20159;-50
2023/05/21 09:40:14;;;;;;;14.73;10.98;;;21.40;99.90;;;;;;5071813;28;20180;-50
2023/05/21 09:42:41;;;;;;;10.45;9.35;;;21.50;99.90;;;;;;5071855;28;20643;-51
2023/05/21 09:45:08;;;;;;;11.85;10.20;;;21.40;99.90;;;;;;5072223;28;20169;-51
2023/05/21 09:47:42;;;;;;;12.73;10.82;;;21.60;99.90;;;;;;5072059;28;20173;-51
2023/05/21 09:50:10;;;;;;;12.20;10.75;;;21.50;99.90;;;;;;5071918;28;20639;-50
2023/05/21 09:52:36;;;;;;;11.75;10.38;;;21.60;99.90;;;;;;5072074;28;20255;-51
2023/05/21 09:55:06;;;;;;;13.48;11.10;;;21.70;99.90;;;;;;5071965;28;20209;-50
2023/05/21 09:57:31;;;;;;;12.52;10.10;;;21.70;99.90;;;;;;5071842;28;20162;-51
2023/05/21 09:59:57;;;;;;;13.88;10.60;;;22.00;99.90;;;;;;5071851;28;20209;-51
2023/05/21 10:02:25;;;;;;;13.35;11.18;;;22.00;99.90;;;;;;5071590;28;20170;-50
2023/05/21 10:04:53;;;;;;;16.08;11.23;;;22.10;99.90;;;;;;5071984;28;20582;-51
2023/05/21 10:07:29;;;;;;;11.30;10.10;;;22.10;99.90;;;;;;5071308;28;20763;-50
2023/05/21 10:09:56;;;;;;;12.98;10.73;;;22.00;99.90;;;;;;5071522;28;20219;-50
2023/05/21 10:12:26;;;;;;;14.00;10.60;;;22.00;99.90;;;;;;5071967;28;20219;-50
2023/05/21 10:15:01;;;;;;;13.60;10.80;;;22.40;99.90;;;;;;5072010;28;20298;-51
2023/05/21 10:17:28;;;;;;;15.55;11.20;;;22.40;99.90;;;;;;5071448;28;20177;-50
2023/05/21 10:19:55;;;;;;;12.18;10.38;;;22.60;99.90;;;;;;5071366;28;20166;-50
2023/05/21 10:22:22;;;;;;;13.57;10.85;;;;;;;;;;5072041;28;20201;-51
2023/05/21 10:24:49;;;;;;;12.98;11.50;;;22.50;99.90;;;;;;5071833;28;20173;-50
2023/05/21 10:27:15;;;;;;;11.88;9.90;;;23.10;99.90;;;;;;5071310;28;20631;-51
2023/05/21 10:29:44;;;;;;;15.23;11.50;;;23.20;99.90;;;;;;5071303;28;20661;-51
2023/05/21 10:32:15;;;;;;;17.02;11.95;;;23.40;99.90;;;;;;5071275;28;20177;-50
2023/05/21 10:34:42;;;;;;;13.80;11.45;;;23.60;99.90;;;;;;5071154;28;20732;-50
2023/05/21 10:37:09;;;;;;;14.02;11.93;;;23.50;99.90;;;;;;5071202;28;20252;-51
2023/05/21 10:39:37;;;;;;;12.13;10.82;;;23.40;99.90;;;;;;5071445;28;20500;-50
2023/05/21 10:42:19;;;;;;;13.48;12.07;;;23.30;99.90;;;;;;5071170;28;20161;-51
2023/05/21 10:45:01;;;;;;;13.05;11.75;;;23.50;99.90;;;;;;5071400;28;20564;-51
2023/05/21 10:47:51;;;;;;;13.93;12.10;;;23.60;99.90;;;;;;5071193;28;20161;-51
2023/05/21 10:50:38;;;;;;;13.57;11.43;;;23.70;99.90;;;;;;5071109;28;20696;-50
2023/05/21 10:53:19;;;;;;;16.80;12.18;;;23.70;99.90;;;;;;5069722;28;20179;-50
2023/05/21 10:56:09;;;;;;;13.63;12.23;;;23.60;99.90;;;;;;5071075;28;20278;-50
2023/05/21 10:58:52;;;;;;;13.65;12.20;;;23.70;99.90;;;;;;5071029;28;20635;-50
2023/05/21 11:01:18;;;;;;;14.10;11.07;;;23.90;99.90;;;;;;5071482;28;20172;-50
2023/05/21 11:03:47;;;;;;;14.50;12.82;;;23.50;99.90;;;;;;5071033;28;20166;-50
2023/05/21 11:06:25;;;;;;;14.82;13.10;;;23.30;99.90;;;;;;5070743;28;20224;-51
2023/05/21 11:08:52;;;;;;;16.77;12.57;;;23.60;99.90;;;;;;5071353;28;20181;-50
2023/05/21 11:11:50;;;;;;;14.05;12.63;;;23.60;99.90;;;;;;5071488;28;20193;-50
2023/05/21 11:14:36;;;;;;;14.63;13.15;;;23.40;99.90;;;;;;5071014;28;20220;-46
2023/05/21 11:17:08;;;;;;;14.30;12.80;;;23.70;99.90;;;;;;5072023;28;20177;-48
2023/05/21 11:19:38;;;;;;;14.30;12.70;;;23.90;99.90;;;;;;5074597;28;20631;-51
2023/05/21 11:22:25;;;;;;;14.20;12.30;;;24.00;99.90;;;;;;5074812;28;20241;-51
2023/05/21 11:24:51;;;;;;;14.07;12.65;;;24.00;99.90;;;;;;5075050;28;20162;-49
2023/05/21 11:27:37;;;;;;;15.52;13.93;;;24.00;99.90;;;;;;5075045;28;20184;-51
2023/05/21 11:30:16;;;;;;;16.55;13.77;;;24.00;99.90;;;;;;5074459;28;20575;-50
2023/05/21 11:33:11;;;;;;;16.42;12.55;;;24.40;99.90;;;;;;5074354;28;20169;-50
2023/05/21 11:35:55;;;;;;;15.88;12.75;;;24.20;99.90;;;;;;5074151;28;20184;-50
2023/05/21 11:38:21;;;;;;;14.63;12.40;;;24.10;99.90;;;;;;5074709;28;20168;-51
2023/05/21 11:40:53;;;;;;;15.35;13.77;;;24.20;99.90;;;;;;5074684;28;20153;-51
2023/05/21 11:43:19;;;;;;;16.30;13.88;;;24.00;99.90;;;;;;5074901;28;20169;-51
2023/05/21 11:45:46;;;;;;;14.18;12.60;;;23.90;99.90;;;;;;5074128;28;20643;-50
2023/05/21 11:48:14;;;;;;;14.25;12.75;;;23.80;99.90;;;;;;5074290;28;20589;-51
2023/05/21 11:50:43;;;;;;;15.70;12.63;;;24.00;99.90;;;;;;5074377;28;20200;-50
2023/05/21 11:53:11;;;;;;;14.15;12.75;;;24.20;99.90;;;;;;5073982;28;20177;-51
2023/05/21 11:55:42;;;;;;;14.88;12.82;;;23.80;99.90;;;;;;5074007;28;20173;-49
2023/05/21 11:58:12;;;;;;;14.70;13.18;;;24.10;99.90;;;;;;5074161;28;20184;-50
2023/05/21 12:00:39;;;;;;;17.40;13.52;;;24.30;99.90;;;;;;5074215;28;20245;-50
2023/05/21 12:03:06;;;;;;;15.77;13.45;;;24.30;99.90;;;;;;5074192;28;20169;-50
2023/05/21 12:05:46;;;;;;;14.50;12.88;;;24.20;99.90;;;;;;5073953;28;20181;-51
2023/05/21 12:08:12;;;;;;;18.27;13.05;;;24.40;99.90;;;;;;5073860;28;20164;-51
2023/05/21 12:10:40;;;;;;;14.63;12.95;;;24.10;99.90;;;;;;5073795;28;20165;-49
2023/05/21 12:13:06;;;;;;;14.57;13.05;;;24.20;99.90;;;;;;5073777;28;20170;-51
2023/05/21 12:15:31;;;;;;;15.13;13.52;;;24.50;99.90;;;;;;5073919;28;20184;-50
2023/05/21 12:17:57;;;;;;;14.07;12.68;;;24.50;99.90;;;;;;5073621;28;20632;-51
2023/05/21 12:20:25;;;;;;;16.60;14.35;;;24.50;99.90;;;;;;5073670;28;20217;-46
2023/05/21 12:22:51;;;;;;;14.45;12.32;;;24.50;99.90;;;;;;5074223;28;20542;-46
2023/05/21 12:25:18;;;;;;;15.63;12.98;;;;;;;;;;5074017;28;20158;-46
2023/05/21 12:27:45;;;;;;;16.25;13.10;;;24.60;99.90;;;;;;5073712;28;20260;-46
2023/05/21 12:30:11;;;;;;;14.35;12.85;;;24.80;99.90;;;;;;5072354;28;20173;-46
2023/05/21 12:32:42;;;;;;;15.75;13.23;;;24.80;99.90;;;;;;5073454;28;20180;-44
2023/05/21 12:35:08;;;;;;;13.52;12.20;;;24.80;99.90;;;;;;5073485;28;20562;-47
2023/05/21 12:37:34;;;;;;;15.70;14.10;;;25.00;99.90;;;;;;5073282;28;20158;-47
2023/05/21 12:40:09;;;;;;;15.70;14.10;;;24.80;99.90;;;;;;5073157;28;20211;-47
2023/05/21 12:42:36;;;;;;;15.30;13.68;;;24.70;99.90;;;;;;5073387;28;20197;-46
2023/05/21 12:45:08;;;;;;;13.38;10.80;;;24.70;99.90;;;;;;5073055;28;20162;-46
2023/05/21 12:47:35;;;;;;;18.70;13.95;;;24.80;99.90;;;;;;5071754;28;20638;-45